createdAt,value
2022-12-25T00:02:20.831Z,6.26
2022-12-25T00:04:47.505Z,6.25
2022-12-25T00:07:14.279Z,6.24
2022-12-25T00:09:40.906Z,6.21
2022-12-25T00:12:07.710Z,6.23
2022-12-25T00:14:34.535Z,6.30
2022-12-25T00:17:01.380Z,6.17
2022-12-25T00:19:28.030Z,6.27
2022-12-25T00:21:54.728Z,6.09
2022-12-25T00:24:21.343Z,6.20
2022-12-25T00:26:48.074Z,6.20
2022-12-25T00:29:14.907Z,6.25
2022-12-25T00:31:41.593Z,6.26
2022-12-25T00:34:08.277Z,6.26
2022-12-25T00:36:41.170Z,6.13
2022-12-25T00:39:08.450Z,6.14
2022-12-25T00:41:53.648Z,6.21
2022-12-25T00:44:20.682Z,6.21
2022-12-25T00:46:47.460Z,6.10
2022-12-25T00:49:14.254Z,6.26
2022-12-25T00:51:41.019Z,6.27
2022-12-25T00:54:08.638Z,6.08
2022-12-25T00:56:35.697Z,6.29
2022-12-25T00:59:02.425Z,6.19
2022-12-25T01:01:29.423Z,6.06
2022-12-25T01:03:56.264Z,6.29
2022-12-25T01:06:23.056Z,6.32
2022-12-25T01:09:09.370Z,6.29
2022-12-25T01:11:36.420Z,6.27
2022-12-25T01:14:03.182Z,6.19
2022-12-25T01:16:30.546Z,6.38
2022-12-25T01:18:57.357Z,6.43
2022-12-25T01:21:24.596Z,6.48
2022-12-25T01:23:52.639Z,6.47
2022-12-25T01:26:23.199Z,6.54
2022-12-25T01:28:51.121Z,6.64
2022-12-25T01:31:21.080Z,6.65
2022-12-25T01:33:48.752Z,6.48
2022-12-25T01:36:24.179Z,6.72
2022-12-25T01:38:52.486Z,6.68
2022-12-25T01:41:22.015Z,6.33
2022-12-25T01:44:05.794Z,6.85
2022-12-25T01:46:32.974Z,6.83
2022-12-25T01:49:04.963Z,6.88
2022-12-25T01:51:35.862Z,6.88
2022-12-25T01:54:07.226Z,7.00
2022-12-25T01:56:36.448Z,6.94
2022-12-25T01:59:06.425Z,6.87
2022-12-25T02:01:33.407Z,7.00
2022-12-25T02:04:09.322Z,7.03
2022-12-25T02:06:36.012Z,7.00
2022-12-25T02:09:03.124Z,7.06
2022-12-25T02:11:48.387Z,7.06
2022-12-25T02:14:15.078Z,7.12
2022-12-25T02:16:57.475Z,7.15
2022-12-25T02:20:02.980Z,7.24
2022-12-25T02:22:56.517Z,7.25
2022-12-25T02:25:56.818Z,7.14
2022-12-25T02:28:30.586Z,7.28
2022-12-25T02:31:03.576Z,7.26
2022-12-25T02:34:03.738Z,7.38
2022-12-25T02:36:51.158Z,7.24
2022-12-25T02:39:58.276Z,7.28
2022-12-25T02:42:55.225Z,7.15
2022-12-25T02:45:50.614Z,7.51
2022-12-25T02:48:39.877Z,7.59
2022-12-25T02:51:29.052Z,7.61
2022-12-25T02:54:17.357Z,7.44
2022-12-25T02:57:06.444Z,7.64
2022-12-25T02:59:56.510Z,7.60
2022-12-25T03:02:43.704Z,7.55
2022-12-25T03:05:33.868Z,7.63
2022-12-25T03:08:06.192Z,7.65
2022-12-25T03:10:54.074Z,7.56
2022-12-25T03:13:24.490Z,7.71
2022-12-25T03:16:10.158Z,7.71
2022-12-25T03:18:36.853Z,7.66
2022-12-25T03:21:21.982Z,7.56
2022-12-25T03:24:22.238Z,7.59
2022-12-25T03:26:55.185Z,7.44
2022-12-25T03:29:52.100Z,7.69
2022-12-25T03:32:38.282Z,7.32
2022-12-25T03:35:31.657Z,7.69
2022-12-25T03:38:19.718Z,7.77
2022-12-25T03:41:31.571Z,7.64
2022-12-25T03:44:22.346Z,7.78
2022-12-25T03:47:17.952Z,7.58
2022-12-25T03:50:08.512Z,7.73
2022-12-25T03:52:56.593Z,7.78
2022-12-25T03:55:43.865Z,7.75
2022-12-25T03:58:39.749Z,7.80
2022-12-25T04:01:25.109Z,7.69
2022-12-25T04:04:10.566Z,7.81
2022-12-25T04:06:55.985Z,7.84
2022-12-25T04:09:41.481Z,7.81
2022-12-25T04:12:26.720Z,7.85
2022-12-25T04:15:11.916Z,7.88
2022-12-25T04:17:57.596Z,7.86
2022-12-25T04:20:43.183Z,7.88
2022-12-25T04:23:28.726Z,7.94
2022-12-25T04:26:16.926Z,7.94
2022-12-25T04:29:02.434Z,7.83
2022-12-25T04:31:47.807Z,7.96
2022-12-25T04:34:33.283Z,7.97
2022-12-25T04:36:59.970Z,7.83
2022-12-25T04:39:26.952Z,7.85
2022-12-25T04:41:53.627Z,8.14
2022-12-25T04:44:20.297Z,8.13
2022-12-25T04:46:47.003Z,8.01
2022-12-25T04:49:13.726Z,8.12
2022-12-25T04:51:40.460Z,8.18
2022-12-25T04:54:07.152Z,8.22
2022-12-25T04:56:34.472Z,8.26
2022-12-25T04:59:03.365Z,7.96
2022-12-25T05:01:30.153Z,8.17
2022-12-25T05:03:57.005Z,8.23
2022-12-25T05:06:23.678Z,8.29
2022-12-25T05:08:50.431Z,8.30
2022-12-25T05:11:17.359Z,8.31
2022-12-25T05:13:44.618Z,8.13
2022-12-25T05:16:20.022Z,8.37
2022-12-25T05:18:50.842Z,8.37
2022-12-25T05:21:17.948Z,8.39
2022-12-25T05:23:50.796Z,8.37
2022-12-25T05:26:20.169Z,8.42
2022-12-25T05:28:47.005Z,8.41
2022-12-25T05:31:13.939Z,8.43
2022-12-25T05:33:41.032Z,8.26
2022-12-25T05:36:10.352Z,8.52
2022-12-25T05:38:37.561Z,8.29
2022-12-25T05:41:04.404Z,8.42
2022-12-25T05:43:31.242Z,8.56
2022-12-25T05:45:58.013Z,8.58
2022-12-25T05:48:24.678Z,8.57
2022-12-25T05:50:51.358Z,8.57
2022-12-25T05:53:18.055Z,8.53
2022-12-25T05:55:44.830Z,8.53
2022-12-25T05:58:12.717Z,8.62
2022-12-25T06:00:40.693Z,8.47
2022-12-25T06:03:07.467Z,8.62
2022-12-25T06:05:34.385Z,8.67
2022-12-25T06:08:01.118Z,8.63
2022-12-25T06:10:27.795Z,8.55
2022-12-25T06:12:54.924Z,8.69
2022-12-25T06:15:21.753Z,8.70
2022-12-25T06:17:48.477Z,8.49
2022-12-25T06:20:15.258Z,8.64
2022-12-25T06:22:41.897Z,8.62
2022-12-25T06:25:09.296Z,8.65
2022-12-25T06:27:35.997Z,8.74
2022-12-25T06:30:03.114Z,8.70
2022-12-25T06:32:29.880Z,8.66
2022-12-25T06:34:56.520Z,8.68
2022-12-25T06:37:23.252Z,8.71
2022-12-25T06:39:50.069Z,8.61
2022-12-25T06:42:16.726Z,8.77
2022-12-25T06:44:43.453Z,8.63
2022-12-25T06:47:10.342Z,8.83
2022-12-25T06:49:37.017Z,8.65
2022-12-25T06:52:03.690Z,8.80
2022-12-25T06:54:30.389Z,8.76
2022-12-25T06:56:57.087Z,8.60
2022-12-25T06:59:23.850Z,8.68
2022-12-25T07:01:53.709Z,8.66
2022-12-25T07:04:32.114Z,8.87
2022-12-25T07:07:08.412Z,8.89
2022-12-25T07:09:36.445Z,8.89
2022-12-25T07:12:13.795Z,8.93
2022-12-25T07:14:40.582Z,8.92
2022-12-25T07:17:07.428Z,8.77
2022-12-25T07:19:35.339Z,8.98
2022-12-25T07:22:05.054Z,9.07
2022-12-25T07:24:31.745Z,8.83
2022-12-25T07:26:58.388Z,8.90
2022-12-25T07:29:25.104Z,9.02
2022-12-25T07:31:51.801Z,9.06
2022-12-25T07:34:18.780Z,8.95
2022-12-25T07:36:46.067Z,9.05
2022-12-25T07:39:13.183Z,8.96
2022-12-25T07:41:40.322Z,8.96
2022-12-25T07:44:07.058Z,8.68
2022-12-25T07:46:33.783Z,8.63
2022-12-25T07:49:01.003Z,8.97
2022-12-25T07:51:30.174Z,9.13
2022-12-25T07:53:57.408Z,9.12
2022-12-25T07:56:24.405Z,9.07
2022-12-25T07:58:51.114Z,8.96
2022-12-25T08:01:21.430Z,9.12
2022-12-25T08:03:55.953Z,9.14
2022-12-25T08:06:25.028Z,9.10
2022-12-25T08:08:51.754Z,9.02
2022-12-25T08:11:18.470Z,9.11
2022-12-25T08:13:45.115Z,9.15
2022-12-25T08:16:12.019Z,9.20
2022-12-25T08:18:39.514Z,9.22
2022-12-25T08:21:12.302Z,9.24
2022-12-25T08:23:41.857Z,9.22
2022-12-25T08:26:13.403Z,9.24
2022-12-25T08:28:40.209Z,9.20
2022-12-25T08:31:14.682Z,9.28
2022-12-25T08:33:41.877Z,9.25
2022-12-25T08:36:11.155Z,9.16
2022-12-25T08:38:38.923Z,9.30
2022-12-25T08:41:06.227Z,9.18
2022-12-25T08:43:32.946Z,9.26
2022-12-25T08:45:59.894Z,9.24
2022-12-25T08:48:27.836Z,9.32
2022-12-25T08:50:54.780Z,9.20
2022-12-25T08:53:22.131Z,9.33
2022-12-25T08:55:48.851Z,9.38
2022-12-25T08:58:16.604Z,9.29
2022-12-25T09:00:43.625Z,9.32
2022-12-25T09:03:10.500Z,9.37
2022-12-25T09:05:37.964Z,9.41
2022-12-25T09:08:04.922Z,9.38
2022-12-25T09:10:35.030Z,9.38
2022-12-25T09:13:02.775Z,9.39
2022-12-25T09:15:29.772Z,9.39
2022-12-25T09:17:56.604Z,9.36
2022-12-25T09:20:23.353Z,9.34
2022-12-25T09:22:50.269Z,9.21
2022-12-25T09:25:17.319Z,9.32
2022-12-25T09:27:44.082Z,9.34
2022-12-25T09:30:11.473Z,9.37
2022-12-25T09:32:40.378Z,9.25
2022-12-25T09:35:08.479Z,9.18
2022-12-25T09:37:35.399Z,9.36
2022-12-25T09:40:02.267Z,9.33
2022-12-25T09:42:31.492Z,9.21
2022-12-25T09:45:03.149Z,9.30
2022-12-25T09:47:33.811Z,9.32
2022-12-25T09:50:12.167Z,9.33
2022-12-25T09:52:41.559Z,9.34
2022-12-25T09:55:14.731Z,9.35
2022-12-25T09:57:45.742Z,9.30
2022-12-25T10:00:18.247Z,9.15
2022-12-25T10:02:57.357Z,9.22
2022-12-25T10:05:47.856Z,9.37
2022-12-25T10:08:35.833Z,9.39
2022-12-25T10:11:27.405Z,9.41
2022-12-25T10:14:15.261Z,9.45
2022-12-25T10:17:17.963Z,9.46
2022-12-25T10:20:03.391Z,9.38
2022-12-25T10:23:00.657Z,9.49
2022-12-25T10:25:27.537Z,9.48
2022-12-25T10:28:04.548Z,9.51
2022-12-25T10:30:32.394Z,9.55
2022-12-25T10:32:59.289Z,9.59
2022-12-25T10:35:28.923Z,9.54
2022-12-25T10:37:59.016Z,9.62
2022-12-25T10:40:28.906Z,9.59
2022-12-25T10:43:04.447Z,9.49
2022-12-25T10:45:31.074Z,9.47
2022-12-25T10:48:07.734Z,9.56
2022-12-25T10:50:34.867Z,9.47
2022-12-25T10:53:05.605Z,9.56
2022-12-25T10:55:33.274Z,9.46
2022-12-25T10:58:02.022Z,9.56
2022-12-25T11:00:31.098Z,9.65
2022-12-25T11:02:58.450Z,9.59
2022-12-25T11:05:35.988Z,9.67
2022-12-25T11:08:03.705Z,9.65
2022-12-25T11:10:44.472Z,9.61
2022-12-25T11:13:24.582Z,9.74
2022-12-25T11:16:25.337Z,9.78
2022-12-25T11:18:52.699Z,9.77
2022-12-25T11:21:34.830Z,9.68
2022-12-25T11:24:20.055Z,9.63
2022-12-25T11:26:55.824Z,9.84
2022-12-25T11:29:40.923Z,9.86
2022-12-25T11:32:16.833Z,9.70
2022-12-25T11:34:46.644Z,9.47
2022-12-25T11:37:20.198Z,9.86
2022-12-25T11:39:47.154Z,9.86
2022-12-25T11:42:28.870Z,9.54
2022-12-25T11:44:55.502Z,9.92
2022-12-25T11:47:30.572Z,9.83
2022-12-25T11:50:27.028Z,9.93
2022-12-25T11:52:55.457Z,9.93
2022-12-25T11:55:39.042Z,9.95
2022-12-25T11:58:21.189Z,9.93
2022-12-25T12:00:51.156Z,9.95
2022-12-25T12:03:36.980Z,9.95
2022-12-25T12:06:33.112Z,9.90
2022-12-25T12:09:41.575Z,9.94
2022-12-25T12:12:26.422Z,9.85
2022-12-25T12:15:00.937Z,9.94
2022-12-25T12:17:27.646Z,9.93
2022-12-25T12:19:54.425Z,9.81
2022-12-25T12:22:26.815Z,9.99
2022-12-25T12:25:01.592Z,9.83
2022-12-25T12:27:40.465Z,10.01
2022-12-25T12:30:22.061Z,9.97
2022-12-25T12:32:52.914Z,9.78
2022-12-25T12:35:32.106Z,10.01
2022-12-25T12:38:02.853Z,10.02
2022-12-25T12:40:38.949Z,10.00
2022-12-25T12:43:23.716Z,10.06
2022-12-25T12:45:56.855Z,10.00
2022-12-25T12:48:28.400Z,10.00
2022-12-25T12:51:13.304Z,9.82
2022-12-25T12:53:42.793Z,10.01
2022-12-25T12:56:18.445Z,10.14
2022-12-25T12:58:50.936Z,9.98
2022-12-25T13:01:18.240Z,10.13
2022-12-25T13:04:00.562Z,10.13
2022-12-25T13:06:40.967Z,10.15
2022-12-25T13:09:22.823Z,10.18
2022-12-25T13:11:50.265Z,10.06
2022-12-25T13:14:21.041Z,9.80
2022-12-25T13:16:50.248Z,10.10
2022-12-25T13:19:24.338Z,9.90
2022-12-25T13:22:01.003Z,10.18
2022-12-25T13:24:30.467Z,9.93
2022-12-25T13:26:58.956Z,10.03
2022-12-25T13:29:31.442Z,10.12
2022-12-25T13:32:00.171Z,10.18
2022-12-25T20:32:23.953Z,9.27
2022-12-25T20:34:51.029Z,9.50
2022-12-25T20:37:17.770Z,9.59
2022-12-25T20:39:44.462Z,9.51
2022-12-25T20:42:11.406Z,9.63
2022-12-25T20:44:38.231Z,9.50
2022-12-25T20:47:05.176Z,9.63
2022-12-25T20:49:32.687Z,9.65
2022-12-25T20:52:04.896Z,9.33
2022-12-25T20:54:32.571Z,9.60
2022-12-25T20:56:59.367Z,9.66
2022-12-25T20:59:25.999Z,9.62
2022-12-25T21:01:55.591Z,9.53
2022-12-25T21:04:22.612Z,9.62
2022-12-25T21:06:49.309Z,9.66
2022-12-25T21:09:15.996Z,9.19
2022-12-25T21:11:42.864Z,9.66
2022-12-25T21:14:09.698Z,9.62
2022-12-25T21:16:36.587Z,9.54
2022-12-25T21:19:03.344Z,9.54
2022-12-25T21:21:29.972Z,9.44
2022-12-25T21:23:57.243Z,9.45
2022-12-25T21:26:29.308Z,9.59
2022-12-25T21:29:00.381Z,9.52
2022-12-25T21:31:28.300Z,9.61
2022-12-25T21:33:57.465Z,9.46
2022-12-25T21:36:28.941Z,9.59
2022-12-25T21:39:02.192Z,9.36
2022-12-25T21:41:30.686Z,9.57
2022-12-25T21:43:57.820Z,9.32
2022-12-25T21:46:25.168Z,9.36
2022-12-25T21:48:52.233Z,9.59
2022-12-25T21:51:43.854Z,9.59
2022-12-25T21:54:11.333Z,9.57
2022-12-25T21:56:44.440Z,9.57
2022-12-25T21:59:17.157Z,9.30
2022-12-25T22:01:44.650Z,9.55
2022-12-25T22:04:12.945Z,9.56
2022-12-25T22:06:58.487Z,9.53
2022-12-25T22:09:25.479Z,9.56
2022-12-25T22:12:10.788Z,9.51
2022-12-25T22:14:55.256Z,9.54
2022-12-25T22:17:44.311Z,9.54
2022-12-25T22:20:18.774Z,9.55
2022-12-25T22:22:45.603Z,9.34
2022-12-25T22:25:13.732Z,9.56
2022-12-25T22:27:42.290Z,9.54
2022-12-25T22:30:16.096Z,9.55
2022-12-25T22:32:43.081Z,9.41
2022-12-25T22:35:12.343Z,9.56
2022-12-25T22:37:40.724Z,9.56
2022-12-25T22:40:09.917Z,9.55
2022-12-25T22:42:37.126Z,9.33
2022-12-25T22:45:04.455Z,9.09
2022-12-25T22:47:31.375Z,9.46
2022-12-25T22:49:58.226Z,9.46
2022-12-25T22:52:24.991Z,9.25
2022-12-25T22:54:51.889Z,9.38
2022-12-25T22:57:18.589Z,9.35
2022-12-25T22:59:45.307Z,9.39
2022-12-25T23:02:12.199Z,9.42
2022-12-25T23:04:39.035Z,9.45
2022-12-25T23:07:05.973Z,9.38
2022-12-25T23:09:32.851Z,9.34
2022-12-25T23:11:59.898Z,9.40
2022-12-25T23:14:39.083Z,9.46
2022-12-25T23:17:31.054Z,9.45
2022-12-25T23:20:18.136Z,9.38
2022-12-25T23:23:04.671Z,9.29
2022-12-25T23:25:50.400Z,9.29
2022-12-25T23:28:40.177Z,9.36
2022-12-25T23:31:07.415Z,9.39
2022-12-25T23:33:34.214Z,9.39
2022-12-25T23:36:01.160Z,9.38
2022-12-25T23:38:28.023Z,9.36
2022-12-25T23:40:54.748Z,9.02
2022-12-25T23:43:21.511Z,9.25
2022-12-25T23:45:48.238Z,9.33
2022-12-25T23:48:15.031Z,9.40
2022-12-25T23:50:41.752Z,9.32
2022-12-25T23:53:09.900Z,9.38
2022-12-25T23:55:36.718Z,9.20
2022-12-25T23:58:03.494Z,9.32
